Time;durP1;ratioP1;P1;durP2;ratioP2;P2;SDS_P1;SDS_P2;PMS_P1;PMS_P2;Temp;Humidity;BMP_temperature;BMP_pressure;BME280_temperature;BME280_humidity;BME280_pressure;Samples;Min_cycle;Max_cycle;Signal;HPM_P1;HPM_P2
2022/12/27 00:01:34;;;;;;;7.75;3.20;;;3.70;95.30;;;;;;4880005;29;20047;-83
2022/12/27 00:04:01;;;;;;;6.35;2.47;;;3.70;95.40;;;;;;4933866;29;20054;-83
2022/12/27 00:06:29;;;;;;;8.35;3.17;;;3.70;95.30;;;;;;4897138;29;20054;-85
2022/12/27 00:08:57;;;;;;;6.57;2.67;;;3.70;95.40;;;;;;4917645;29;20495;-86
2022/12/27 00:11:28;;;;;;;5.22;2.25;;;3.80;95.40;;;;;;4913596;29;20040;-86
2022/12/27 00:13:58;;;;;;;8.88;3.05;;;3.80;95.40;;;;;;4901708;29;20052;-86
2022/12/27 00:16:26;;;;;;;6.78;2.53;;;3.80;95.40;;;;;;4892386;29;20075;-86
2022/12/27 00:18:53;;;;;;;7.40;2.88;;;3.70;95.40;;;;;;4878379;29;20099;-86
2022/12/27 00:21:21;;;;;;;6.65;2.78;;;3.70;95.50;;;;;;4903439;29;20055;-87
2022/12/27 00:23:54;;;;;;;4.68;1.98;;;3.80;95.50;;;;;;4899455;29;20123;-86
2022/12/27 00:26:27;;;;;;;7.15;3.55;;;3.70;95.50;;;;;;4909004;29;20066;-85
2022/12/27 00:28:55;;;;;;;7.50;2.97;;;3.70;95.60;;;;;;4880472;29;20063;-85
2022/12/27 00:31:28;;;;;;;5.15;2.50;;;3.80;95.60;;;;;;4907905;29;20123;-86
2022/12/27 00:33:59;;;;;;;6.22;2.60;;;3.70;95.60;;;;;;4891894;29;20106;-86
2022/12/27 00:36:28;;;;;;;8.07;2.90;;;3.70;95.70;;;;;;4908036;29;20447;-86
2022/12/27 00:38:57;;;;;;;6.13;2.40;;;3.70;95.70;;;;;;4898990;29;20508;-87
2022/12/27 00:41:24;;;;;;;6.57;2.78;;;3.70;95.70;;;;;;4911408;29;20055;-87
2022/12/27 00:43:52;;;;;;;6.47;2.85;;;3.80;95.80;;;;;;4889967;29;20525;-87
2022/12/27 00:46:19;;;;;;;5.20;2.78;;;3.70;95.70;;;;;;4900935;29;20043;-87
2022/12/27 00:48:46;;;;;;;6.78;1.98;;;3.70;95.80;;;;;;4876196;29;20047;-87
2022/12/27 00:51:19;;;;;;;5.45;2.15;;;3.70;95.80;;;;;;4904541;29;20071;-87
2022/12/27 00:53:46;;;;;;;;;;;3.70;95.90;;;;;;4891740;29;20052;-87
2022/12/27 00:56:17;;;;;;;6.05;2.40;;;3.60;95.90;;;;;;4897268;29;19930;-87
2022/12/27 00:58:44;;;;;;;6.88;2.85;;;3.70;96.00;;;;;;4898610;29;20494;-87
2022/12/27 01:01:17;;;;;;;5.63;2.60;;;3.70;96.00;;;;;;4907456;29;20561;-86
2022/12/27 01:03:45;;;;;;;6.50;2.30;;;3.70;95.90;;;;;;4906717;29;20515;-87
2022/12/27 01:06:16;;;;;;;5.80;2.30;;;3.70;95.90;;;;;;4906409;29;20501;-87
2022/12/27 01:08:45;;;;;;;6.38;2.22;;;3.70;96.00;;;;;;4900862;29;20059;-86
2022/12/27 01:11:13;;;;;;;8.65;2.83;;;3.70;96.00;;;;;;4938954;29;20130;-87
2022/12/27 01:13:41;;;;;;;7.53;2.35;;;3.70;96.00;;;;;;4931043;29;20094;-87
2022/12/27 01:16:17;;;;;;;4.88;2.47;;;3.70;96.00;;;;;;4936545;29;20043;-86
2022/12/27 01:18:44;;;;;;;4.75;2.33;;;3.70;96.10;;;;;;4928136;29;20051;-86
2022/12/27 01:21:14;;;;;;;8.25;2.38;;;3.70;96.10;;;;;;4936055;29;20047;-86
2022/12/27 01:23:42;;;;;;;3.95;2.10;;;3.60;96.20;;;;;;4922863;29;20043;-86
2022/12/27 01:26:16;;;;;;;4.13;1.85;;;3.60;96.20;;;;;;4938346;29;20067;-86
2022/12/27 01:28:44;;;;;;;5.65;2.13;;;3.60;96.10;;;;;;4938497;29;20043;-86
2022/12/27 01:31:14;;;;;;;6.53;2.25;;;3.60;96.20;;;;;;4938523;29;20138;-85
2022/12/27 01:33:41;;;;;;;5.15;2.33;;;3.60;96.30;;;;;;4933292;29;20039;-86
2022/12/27 01:36:10;;;;;;;5.85;2.63;;;3.60;96.30;;;;;;4922923;29;20102;-88
2022/12/27 01:38:37;;;;;;;6.57;2.72;;;3.60;96.30;;;;;;4932056;29;20146;-88
2022/12/27 01:42:50;;;;;;;4.78;2.30;;;3.60;96.30;;;;;;4916191;29;20058;-90
2022/12/27 01:43:52;;;;;;;7.05;3.35;;;3.60;96.30;;;;;;4925487;29;20051;-87
2022/12/27 01:46:19;;;;;;;5.82;2.35;;;3.60;96.30;;;;;;4914825;29;20048;-87
2022/12/27 01:48:46;;;;;;;8.00;2.67;;;3.70;96.30;;;;;;4937475;29;20043;-87
2022/12/27 01:51:14;;;;;;;6.05;2.50;;;3.70;96.30;;;;;;4922504;29;20138;-87
2022/12/27 01:53:45;;;;;;;7.20;3.10;;;3.70;96.30;;;;;;4922705;28;20057;-91
2022/12/27 01:56:18;;;;;;;6.20;2.80;;;3.70;96.30;;;;;;4938045;29;20062;-87
2022/12/27 01:58:54;;;;;;;7.30;2.78;;;3.70;96.30;;;;;;4938907;29;20043;-88
2022/12/27 02:01:27;;;;;;;8.73;3.85;;;3.70;96.30;;;;;;4934064;29;20071;-89
2022/12/27 02:04:04;;;;;;;6.15;2.83;;;3.70;96.30;;;;;;4926479;29;20063;-88
2022/12/27 02:06:33;;;;;;;6.53;2.55;;;3.70;96.30;;;;;;4937939;29;20494;-87
2022/12/27 02:09:12;;;;;;;4.22;2.08;;;3.70;96.40;;;;;;4909644;29;20062;-87
2022/12/27 02:11:50;;;;;;;5.30;2.22;;;3.70;96.40;;;;;;4929604;29;20063;-87
2022/12/27 02:14:26;;;;;;;6.03;2.67;;;3.70;96.40;;;;;;4918863;29;20048;-86
2022/12/27 02:16:57;;;;;;;4.28;2.22;;;3.70;96.50;;;;;;4928663;29;20058;-86
2022/12/27 02:20:03;;;;;;;4.57;2.30;;;3.80;96.40;;;;;;4890805;29;20418;-87
2022/12/27 02:25:59;;;;;;;6.68;2.45;;;4.00;96.20;;;;;;4913870;29;20059;-88
2022/12/27 02:28:50;;;;;;;7.57;2.72;;;3.90;96.10;;;;;;4916806;29;20103;-89
2022/12/27 02:31:27;;;;;;;7.93;3.17;;;3.90;96.20;;;;;;4915219;29;20047;-88
2022/12/27 02:33:57;;;;;;;6.03;2.63;;;3.80;96.30;;;;;;4919179;29;20058;-89
2022/12/27 02:36:32;;;;;;;6.78;2.67;;;3.80;96.40;;;;;;4931392;29;20149;-89
2022/12/27 02:39:01;;;;;;;5.95;2.67;;;3.80;96.50;;;;;;4909046;29;20062;-89
2022/12/27 02:53:24;;;;;;;5.90;2.13;;;3.90;96.80;;;;;;4932204;29;20086;-89
2022/12/27 02:59:34;;;;;;;4.10;2.00;;;3.70;96.90;;;;;;4861735;29;20041;-89
2022/12/27 03:05:29;;;;;;;2.97;1.25;;;3.60;97.00;;;;;;4933891;29;20048;-88
2022/12/27 03:08:16;;;;;;;3.13;1.15;;;3.60;97.10;;;;;;4941432;29;20058;-89
2022/12/27 03:15:53;;;;;;;4.38;2.15;;;3.50;97.30;;;;;;4941537;29;20050;-89
2022/12/27 03:17:18;;;;;;;8.05;2.28;;;3.60;97.40;;;;;;4928416;29;20052;-89
2022/12/27 03:25:28;;;;;;;5.22;2.15;;;3.70;97.30;;;;;;4921956;29;20048;-89
2022/12/27 03:33:46;;;;;;;3.88;1.85;;;3.60;97.50;;;;;;4929218;29;20099;-89
2022/12/27 03:39:35;;;;;;;8.52;2.78;;;3.60;97.70;;;;;;4899001;29;20052;-88
2022/12/27 03:44:57;;;;;;;8.70;3.40;;;3.70;97.70;;;;;;4927460;29;20054;-89
2022/12/27 03:47:41;;;;;;;7.97;3.00;;;3.70;97.80;;;;;;4904127;29;20050;-89
2022/12/27 03:50:19;;;;;;;8.45;3.55;;;3.70;97.70;;;;;;4935038;29;20110;-89
2022/12/27 03:52:57;;;;;;;7.80;3.85;;;3.80;97.80;;;;;;4916347;29;20512;-88
2022/12/27 03:55:24;;;;;;;7.13;3.70;;;3.80;97.80;;;;;;4927036;29;20110;-88
2022/12/27 03:57:59;;;;;;;8.60;3.90;;;3.70;97.80;;;;;;4889552;29;20071;-88
2022/12/27 04:00:26;;;;;;;7.47;3.10;;;3.70;97.80;;;;;;4903828;29;20146;-87
2022/12/27 04:02:53;;;;;;;6.03;3.17;;;3.70;97.80;;;;;;4890684;29;20439;-89
2022/12/27 04:05:22;;;;;;;5.38;2.97;;;3.70;97.90;;;;;;4918074;29;20501;-88
2022/12/27 04:35:26;;;;;;;6.47;3.35;;;3.70;98.20;;;;;;4908922;29;20483;-89
2022/12/27 04:37:53;;;;;;;11.07;3.60;;;3.70;98.30;;;;;;4899968;29;20040;-89
2022/12/27 04:57:05;;;;;;;8.90;3.53;;;3.60;98.40;;;;;;4920221;29;20129;-89
2022/12/27 05:02:19;;;;;;;7.95;3.22;;;3.50;98.50;;;;;;4911044;29;20048;-89
2022/12/27 05:04:47;;;;;;;10.43;4.15;;;3.50;98.40;;;;;;4889142;29;20051;-90
2022/12/27 05:15:35;;;;;;;4.95;2.47;;;3.50;98.50;;;;;;4905506;29;20043;-81
2022/12/27 05:18:02;;;;;;;4.82;2.60;;;3.50;98.50;;;;;;4919589;29;20091;-83
2022/12/27 05:20:29;;;;;;;7.43;3.10;;;3.40;98.50;;;;;;4930038;29;20051;-83
2022/12/27 05:25:43;;;;;;;5.90;2.55;;;3.40;98.50;;;;;;4938140;29;20044;-83
2022/12/27 05:28:12;;;;;;;5.18;2.15;;;3.40;98.60;;;;;;4924208;29;20488;-83
2022/12/27 05:30:41;;;;;;;6.55;2.03;;;3.40;98.60;;;;;;4916358;28;20051;-83
2022/12/27 05:33:08;;;;;;;5.30;2.42;;;3.40;98.60;;;;;;4937885;29;20098;-82
2022/12/27 05:35:36;;;;;;;6.50;3.28;;;3.40;98.60;;;;;;4908794;29;20051;-82
2022/12/27 05:38:04;;;;;;;7.55;3.35;;;3.40;98.70;;;;;;4910497;29;20058;-83
2022/12/27 05:40:31;;;;;;;8.10;2.92;;;3.50;98.70;;;;;;4930137;29;20142;-83
2022/12/27 05:43:00;;;;;;;5.10;2.55;;;3.50;98.70;;;;;;4922511;29;20486;-82
2022/12/27 05:45:28;;;;;;;6.03;2.30;;;3.50;98.70;;;;;;4937578;29;20083;-82
2022/12/27 05:47:55;;;;;;;9.88;3.42;;;3.50;98.70;;;;;;4929043;29;20067;-82
2022/12/27 05:50:22;;;;;;;9.63;4.47;;;3.50;98.70;;;;;;4916210;29;20074;-82
2022/12/27 05:52:51;;;;;;;7.97;3.33;;;3.50;98.80;;;;;;4903010;29;20051;-83
2022/12/27 05:55:18;;;;;;;8.18;3.60;;;3.50;98.70;;;;;;4931910;29;20106;-82
2022/12/27 05:57:45;;;;;;;6.10;3.10;;;3.60;98.70;;;;;;4937610;29;20043;-82
2022/12/27 06:00:13;;;;;;;7.05;3.20;;;3.60;98.70;;;;;;4925846;29;20043;-82
2022/12/27 06:02:41;;;;;;;8.10;3.53;;;3.60;98.70;;;;;;4931765;29;20107;-82
2022/12/27 06:05:09;;;;;;;7.35;3.50;;;3.60;98.70;;;;;;4929156;29;20453;-82
2022/12/27 06:07:37;;;;;;;6.47;4.00;;;3.60;98.70;;;;;;4908576;29;20130;-83
2022/12/27 06:10:08;;;;;;;5.78;3.20;;;3.60;98.70;;;;;;4915267;29;20051;-82
2022/12/27 06:12:35;;;;;;;7.25;2.90;;;3.60;98.70;;;;;;4932052;29;20036;-82
2022/12/27 06:15:04;;;;;;;6.18;2.58;;;3.60;98.70;;;;;;4920957;29;20039;-82
2022/12/27 06:17:32;;;;;;;6.15;3.03;;;3.60;98.70;;;;;;4937036;29;20657;-83
2022/12/27 06:19:59;;;;;;;6.93;2.50;;;3.50;98.80;;;;;;4903222;29;20055;-82
2022/12/27 06:22:26;;;;;;;5.88;2.97;;;3.50;98.80;;;;;;4895901;29;20051;-83
2022/12/27 06:24:53;;;;;;;7.22;1.90;;;3.50;98.80;;;;;;4931572;29;20054;-83
2022/12/27 06:27:20;;;;;;;5.50;2.40;;;3.50;98.80;;;;;;4909960;29;20061;-83
2022/12/27 06:29:47;;;;;;;6.07;2.05;;;3.50;98.90;;;;;;4899301;29;20122;-81
2022/12/27 06:32:16;;;;;;;5.97;2.50;;;3.50;98.80;;;;;;4915403;29;20091;-82
2022/12/27 06:34:44;;;;;;;4.47;2.05;;;3.50;98.80;;;;;;4921658;29;20455;-82
2022/12/27 06:37:11;;;;;;;6.43;2.07;;;3.50;98.80;;;;;;4915877;29;20079;-81
2022/12/27 06:39:38;;;;;;;5.25;2.42;;;3.50;98.90;;;;;;4941020;29;20039;-82
2022/12/27 06:42:05;;;;;;;6.50;3.00;;;3.50;98.90;;;;;;4924110;29;20051;-87
2022/12/27 06:44:32;;;;;;;6.78;2.30;;;3.50;98.90;;;;;;4926177;29;20066;-88
2022/12/27 06:46:59;;;;;;;6.07;2.53;;;3.50;98.90;;;;;;4917942;29;20899;-82
2022/12/27 06:49:26;;;;;;;5.90;2.15;;;3.50;98.90;;;;;;4926207;29;20044;-82
2022/12/27 06:51:54;;;;;;;4.73;2.20;;;3.50;98.90;;;;;;4909310;29;20051;-81
2022/12/27 06:54:26;;;;;;;5.20;2.38;;;3.50;98.90;;;;;;4901681;29;20039;-82
2022/12/27 06:56:54;;;;;;;8.38;2.13;;;3.50;98.90;;;;;;4911696;29;20166;-82
2022/12/27 06:59:22;;;;;;;4.30;2.25;;;3.50;98.90;;;;;;4921198;29;20075;-82
2022/12/27 07:01:49;;;;;;;4.68;2.13;;;3.50;98.90;;;;;;4890188;29;20052;-82
2022/12/27 07:04:16;;;;;;;8.27;2.10;;;3.50;98.90;;;;;;4903001;29;20052;-82
2022/12/27 07:06:43;;;;;;;5.50;1.85;;;3.50;98.90;;;;;;4890701;29;20047;-82
2022/12/27 07:09:10;;;;;;;4.97;2.00;;;3.50;98.90;;;;;;4930753;29;20051;-83
2022/12/27 07:11:37;;;;;;;4.85;1.55;;;3.50;98.90;;;;;;4938298;29;20059;-83
2022/12/27 07:14:09;;;;;;;5.65;1.70;;;3.40;98.90;;;;;;4920519;29;20078;-82
2022/12/27 07:16:36;;;;;;;4.65;1.80;;;3.50;98.90;;;;;;4934034;29;20050;-82
2022/12/27 07:19:04;;;;;;;7.45;2.15;;;3.40;98.90;;;;;;4935350;29;20055;-82
2022/12/27 07:21:31;;;;;;;6.57;2.22;;;3.40;98.90;;;;;;4927162;29;20118;-82
2022/12/27 07:23:58;;;;;;;7.43;2.05;;;3.40;99.00;;;;;;4940263;29;20067;-82
2022/12/27 07:26:28;;;;;;;4.80;2.03;;;3.40;99.00;;;;;;4924513;29;20077;-82
2022/12/27 07:29:00;;;;;;;7.35;2.25;;;3.40;99.00;;;;;;4920121;29;20965;-82
2022/12/27 07:31:30;;;;;;;6.00;2.20;;;3.40;99.00;;;;;;4921192;29;20044;-82
2022/12/27 07:33:59;;;;;;;6.72;2.20;;;3.40;99.00;;;;;;4937870;29;20066;-82
2022/12/27 07:36:30;;;;;;;4.97;2.10;;;3.40;98.90;;;;;;4939964;29;20489;-81
2022/12/27 07:38:57;;;;;;;6.32;2.45;;;3.40;99.00;;;;;;4934077;29;20083;-82
2022/12/27 07:41:24;;;;;;;8.52;2.40;;;3.40;99.00;;;;;;4931873;29;20050;-82
2022/12/27 07:43:54;;;;;;;4.45;1.70;;;3.40;99.00;;;;;;4920309;29;20074;-82
2022/12/27 07:46:24;;;;;;;5.10;2.03;;;3.40;99.00;;;;;;4928811;29;20067;-81
2022/12/27 07:48:56;;;;;;;9.77;2.58;;;3.40;99.00;;;;;;4922905;29;20043;-82
2022/12/27 07:51:25;;;;;;;7.35;2.15;;;3.40;99.00;;;;;;4908365;29;20071;-82
2022/12/27 07:53:54;;;;;;;7.88;2.67;;;3.40;99.10;;;;;;4901563;29;20418;-82
2022/12/27 07:56:26;;;;;;;4.93;2.30;;;3.40;99.10;;;;;;4913477;29;20086;-82
2022/12/27 07:58:56;;;;;;;7.38;2.20;;;3.40;99.00;;;;;;4922982;29;20047;-82
2022/12/27 08:01:25;;;;;;;6.07;2.05;;;3.40;99.00;;;;;;4939615;29;20047;-82
2022/12/27 08:03:53;;;;;;;4.90;1.85;;;3.40;99.30;;;;;;4926283;29;20506;-82
2022/12/27 08:06:31;;;;;;;6.95;2.10;;;3.40;99.00;;;;;;4935369;29;20395;-81
2022/12/27 08:09:02;;;;;;;7.33;1.80;;;3.40;99.00;;;;;;4920380;29;20142;-82
2022/12/27 08:11:29;;;;;;;6.30;2.33;;;3.40;99.00;;;;;;4924595;29;20513;-82
2022/12/27 08:13:57;;;;;;;7.00;2.45;;;3.40;99.00;;;;;;4902983;29;20546;-82
2022/12/27 08:16:25;;;;;;;5.72;2.10;;;3.40;99.10;;;;;;4925070;29;20052;-82
2022/12/27 08:18:52;;;;;;;6.53;2.70;;;3.40;99.00;;;;;;4932662;29;20056;-82
2022/12/27 08:21:19;;;;;;;5.90;2.00;;;3.40;99.10;;;;;;4914952;29;20054;-82
2022/12/27 08:23:47;;;;;;;5.17;2.30;;;3.40;99.00;;;;;;4926469;29;20135;-82
2022/12/27 08:26:14;;;;;;;6.30;2.15;;;3.40;99.00;;;;;;4912906;29;20119;-88
2022/12/27 08:28:42;;;;;;;6.60;1.80;;;3.40;99.00;;;;;;4926093;29;20040;-88
2022/12/27 08:31:11;;;;;;;6.90;2.00;;;3.40;99.00;;;;;;4909526;29;20091;-89
2022/12/27 08:33:40;;;;;;;6.40;1.95;;;3.40;99.00;;;;;;4935125;28;20490;-82
2022/12/27 08:36:10;;;;;;;6.30;2.50;;;3.50;99.10;;;;;;4923955;29;20051;-82
2022/12/27 08:38:57;;;;;;;6.47;3.10;;;3.50;99.10;;;;;;4924563;29;20055;-82
2022/12/27 08:41:24;;;;;;;7.27;2.83;;;3.60;99.10;;;;;;4938881;29;20051;-82
2022/12/27 08:43:51;;;;;;;7.73;2.50;;;3.60;99.00;;;;;;4938588;28;20055;-82
2022/12/27 08:46:20;;;;;;;6.30;2.63;;;3.60;99.00;;;;;;4928756;29;20051;-82
2022/12/27 08:48:48;;;;;;;5.40;2.30;;;3.60;99.00;;;;;;4934806;29;20137;-82
2022/12/27 08:51:16;;;;;;;5.88;2.35;;;3.60;98.90;;;;;;4930408;29;20043;-82
2022/12/27 08:53:57;;;;;;;5.25;2.25;;;3.70;99.00;;;;;;4905222;29;20047;-82
2022/12/27 08:56:24;;;;;;;8.52;3.10;;;3.70;98.90;;;;;;4902508;29;20043;-82
2022/12/27 08:58:51;;;;;;;4.33;1.97;;;3.70;98.90;;;;;;4920659;29;20056;-81
2022/12/27 09:01:18;;;;;;;8.07;3.03;;;3.80;98.90;;;;;;4938386;29;20069;-82
2022/12/27 09:03:46;;;;;;;10.80;4.57;;;3.80;98.90;;;;;;4950212;29;20051;-81
2022/12/27 09:06:16;;;;;;;8.18;3.50;;;3.90;98.90;;;;;;4911555;29;20051;-84
2022/12/27 09:08:44;;;;;;;9.10;3.40;;;4.00;98.90;;;;;;4926314;29;20047;-84
2022/12/27 09:11:15;;;;;;;8.23;3.42;;;4.00;98.80;;;;;;4917059;29;20043;-84
2022/12/27 09:13:42;;;;;;;8.13;3.90;;;4.10;98.80;;;;;;4919203;29;20048;-83
2022/12/27 09:16:15;;;;;;;8.13;3.40;;;4.10;98.70;;;;;;4936327;29;20058;-82
2022/12/27 09:18:43;;;;;;;10.00;4.93;;;4.10;98.70;;;;;;4911989;29;20052;-82
2022/12/27 09:21:13;;;;;;;10.18;4.90;;;4.10;98.70;;;;;;4932665;29;20055;-83
2022/12/27 09:23:40;;;;;;;11.30;4.30;;;4.10;98.70;;;;;;4924420;29;20141;-85
2022/12/27 09:26:10;;;;;;;6.35;3.20;;;4.10;98.70;;;;;;4911391;29;20058;-88
2022/12/27 09:28:38;;;;;;;6.00;3.50;;;4.20;98.80;;;;;;4919316;29;20071;-88
2022/12/27 09:31:07;;;;;;;8.50;3.70;;;4.20;98.80;;;;;;4919396;29;20047;-85
2022/12/27 09:33:35;;;;;;;13.82;5.28;;;4.30;98.70;;;;;;4921985;29;20054;-82
2022/12/27 09:36:06;;;;;;;8.50;3.45;;;4.30;98.70;;;;;;4929016;29;20114;-82
2022/12/27 09:38:33;;;;;;;10.00;3.80;;;4.40;98.70;;;;;;4935952;29;20102;-82
2022/12/27 09:41:03;;;;;;;8.63;3.83;;;4.40;98.60;;;;;;4911519;29;20047;-82
2022/12/27 09:43:51;;;;;;;9.02;4.40;;;4.50;98.60;;;;;;4908779;29;20103;-82
2022/12/27 09:46:28;;;;;;;7.47;3.95;;;4.60;98.50;;;;;;4936107;29;20047;-82
2022/12/27 09:48:55;;;;;;;9.88;4.53;;;4.60;98.50;;;;;;4934007;29;20142;-82
2022/12/27 09:51:34;;;;;;;9.18;4.47;;;4.70;98.50;;;;;;4943635;29;20379;-84
2022/12/27 09:54:13;;;;;;;8.85;4.78;;;4.70;98.40;;;;;;4918448;29;20410;-84
2022/12/27 09:56:40;;;;;;;9.13;5.22;;;4.70;98.40;;;;;;4929571;29;20054;-82
2022/12/27 09:59:34;;;;;;;11.10;5.13;;;4.80;98.30;;;;;;4927328;29;20137;-82
2022/12/27 10:02:15;;;;;;;11.15;5.70;;;4.80;98.30;;;;;;4922237;29;20056;-82
2022/12/27 10:04:42;;;;;;;11.18;5.07;;;4.90;98.30;;;;;;4929832;29;20055;-83
2022/12/27 10:07:48;;;;;;;7.38;3.78;;;4.90;98.30;;;;;;4898552;29;20494;-83
2022/12/27 10:10:15;;;;;;;10.70;4.95;;;5.00;98.30;;;;;;4912058;29;20075;-82
2022/12/27 10:12:57;;;;;;;7.60;4.43;;;5.00;98.30;;;;;;4922256;29;20051;-82
2022/12/27 10:15:45;;;;;;;8.57;4.65;;;5.10;98.20;;;;;;4922868;29;20044;-83
2022/12/27 10:18:37;;;;;;;13.35;5.28;;;5.10;98.20;;;;;;4900623;29;20040;-83
2022/12/27 10:21:19;;;;;;;10.82;4.30;;;5.10;98.20;;;;;;4934768;29;20047;-83
2022/12/27 10:23:56;;;;;;;11.57;4.75;;;5.20;98.10;;;;;;4931982;29;20050;-83
2022/12/27 10:26:23;;;;;;;7.80;4.32;;;5.20;98.10;;;;;;4922831;29;20070;-87
2022/12/27 10:29:16;;;;;;;9.20;4.05;;;5.20;98.10;;;;;;4908948;29;20095;-84
2022/12/27 10:31:44;;;;;;;11.57;4.47;;;5.30;98.10;;;;;;4902546;29;20063;-83
2022/12/27 10:34:15;;;;;;;8.30;4.90;;;5.30;98.10;;;;;;4941285;29;20049;-82
2022/12/27 10:36:44;;;;;;;11.63;4.82;;;5.30;98.10;;;;;;4927309;29;20059;-83
2022/12/27 10:39:19;;;;;;;12.35;6.38;;;5.30;98.10;;;;;;4902599;29;20083;-83
2022/12/27 10:41:49;;;;;;;9.70;5.90;;;5.40;98.00;;;;;;4935378;29;20047;-82
2022/12/27 10:44:17;;;;;;;12.27;5.68;;;5.40;98.00;;;;;;4906288;29;20044;-83
2022/12/27 10:46:51;;;;;;;16.30;6.97;;;5.50;98.00;;;;;;4904252;29;20390;-84
2022/12/27 10:49:27;;;;;;;12.65;7.18;;;5.50;97.90;;;;;;4916705;28;20043;-80
2022/12/27 10:52:05;;;;;;;12.60;6.82;;;5.50;97.90;;;;;;4940303;29;20433;-81
2022/12/27 10:54:32;;;;;;;10.55;6.60;;;5.60;97.90;;;;;;4933135;29;20142;-81
2022/12/27 10:57:32;;;;;;;12.65;6.15;;;5.60;97.90;;;;;;4924285;29;20066;-80
2022/12/27 11:00:19;;;;;;;13.93;7.18;;;5.70;97.90;;;;;;4935520;29;20110;-82
2022/12/27 11:02:53;;;;;;;12.40;7.40;;;5.70;97.80;;;;;;4943191;29;20070;-80
2022/12/27 11:05:22;;;;;;;10.77;6.32;;;5.80;97.80;;;;;;4945572;29;20058;-80
2022/12/27 11:07:49;;;;;;;7.78;5.15;;;5.80;97.70;;;;;;4939791;29;20043;-81
2022/12/27 11:10:24;;;;;;;10.63;5.75;;;5.90;97.70;;;;;;4913958;29;20460;-80
2022/12/27 11:12:56;;;;;;;9.80;6.20;;;5.90;97.70;;;;;;4935918;29;20049;-80
2022/12/27 11:15:25;;;;;;;10.88;6.50;;;6.00;97.60;;;;;;4932415;29;20058;-80
2022/12/27 11:17:55;;;;;;;12.18;6.82;;;6.00;97.60;;;;;;4936797;29;20108;-80
2022/12/27 11:20:49;;;;;;;9.55;5.63;;;6.10;97.60;;;;;;4921135;29;20075;-80
2022/12/27 11:23:20;;;;;;;9.77;6.22;;;6.20;97.60;;;;;;4927803;28;20050;-80
2022/12/27 11:25:50;;;;;;;13.68;7.72;;;6.30;97.50;;;;;;4945471;29;20054;-80
2022/12/27 11:28:37;;;;;;;14.60;7.35;;;6.30;97.30;;;;;;4926442;29;20489;-80
2022/12/27 11:31:11;;;;;;;13.68;6.90;;;6.30;97.30;;;;;;4939176;28;20540;-80
2022/12/27 11:33:44;;;;;;;12.90;5.85;;;6.30;97.30;;;;;;4926555;29;20493;-80
2022/12/27 11:36:15;;;;;;;8.38;4.82;;;6.30;97.30;;;;;;4940054;29;20138;-80
2022/12/27 11:38:44;;;;;;;7.88;4.57;;;6.30;97.40;;;;;;4936532;29;20511;-80
2022/12/27 11:41:35;;;;;;;8.80;4.80;;;6.30;97.40;;;;;;4930398;29;20070;-80
2022/12/27 11:44:24;;;;;;;11.77;6.22;;;6.30;97.50;;;;;;4938459;29;20082;-80
2022/12/27 11:47:04;;;;;;;11.98;6.78;;;6.30;97.40;;;;;;4929420;29;20442;-80
2022/12/27 11:49:44;;;;;;;10.18;4.50;;;6.20;97.40;;;;;;4915883;29;20051;-80
2022/12/27 11:52:35;;;;;;;8.15;4.07;;;6.20;97.50;;;;;;4893355;29;20054;-80
2022/12/27 11:55:42;;;;;;;11.20;4.57;;;6.10;97.60;;;;;;4912560;29;20095;-80
2022/12/27 11:58:39;;;;;;;10.18;4.78;;;6.10;97.60;;;;;;4904277;29;20047;-80
2022/12/27 12:01:45;;;;;;;10.65;4.22;;;6.10;97.60;;;;;;4933917;29;20134;-80
2022/12/27 12:04:36;;;;;;;8.45;4.05;;;6.10;97.60;;;;;;4954062;29;20039;-80
2022/12/27 12:07:43;;;;;;;9.57;4.03;;;6.20;97.60;;;;;;4923870;29;20454;-80
2022/12/27 12:10:31;;;;;;;7.05;4.07;;;6.40;97.60;;;;;;4927539;29;20106;-80
2022/12/27 12:13:29;;;;;;;7.30;3.20;;;6.50;97.60;;;;;;4942963;29;20397;-80
2022/12/27 12:16:14;;;;;;;5.18;2.42;;;6.60;97.40;;;;;;4924214;29;20455;-81
2022/12/27 12:19:14;;;;;;;6.55;2.50;;;6.70;97.30;;;;;;4930950;29;20131;-80
2022/12/27 12:22:03;;;;;;;6.53;2.72;;;6.70;97.20;;;;;;4909499;29;20055;-80
2022/12/27 12:24:49;;;;;;;5.45;2.50;;;6.70;97.20;;;;;;4924121;29;20095;-80
2022/12/27 12:27:44;;;;;;;5.88;2.47;;;6.70;97.20;;;;;;4939120;29;20044;-79
2022/12/27 12:30:17;;;;;;;5.72;3.38;;;6.80;97.20;;;;;;4941266;28;20490;-80
2022/12/27 12:33:09;;;;;;;6.95;2.47;;;6.80;97.00;;;;;;4939494;29;20512;-80
2022/12/27 12:35:53;;;;;;;7.63;3.28;;;7.00;97.00;;;;;;4935662;29;20044;-81
2022/12/27 12:38:49;;;;;;;4.57;2.17;;;7.00;97.00;;;;;;4933151;29;20074;-81
2022/12/27 12:41:50;;;;;;;10.00;2.95;;;7.10;97.00;;;;;;4921018;29;20079;-81
2022/12/27 12:44:42;;;;;;;7.07;2.33;;;7.20;96.80;;;;;;4917590;29;20102;-79
2022/12/27 12:47:42;;;;;;;;;;;7.30;96.70;;;;;;4922878;29;20074;-80
2022/12/27 12:50:27;;;;;;;8.15;3.55;;;7.30;96.70;;;;;;4884614;29;19959;-80
2022/12/27 12:53:30;;;;;;;7.22;2.75;;;7.30;96.40;;;;;;4929625;29;20059;-80
2022/12/27 12:56:10;;;;;;;5.68;2.33;;;7.40;96.40;;;;;;4934918;29;20094;-80
2022/12/27 12:58:40;;;;;;;4.88;2.03;;;7.40;96.40;;;;;;4948217;29;20150;-80
2022/12/27 13:01:26;;;;;;;6.30;2.00;;;7.40;96.20;;;;;;4919590;29;20102;-80
2022/12/27 13:04:18;;;;;;;4.07;2.20;;;7.50;96.20;;;;;;4943887;29;20051;-80
2022/12/27 13:07:22;;;;;;;6.25;2.40;;;7.40;96.20;;;;;;4929193;29;20102;-80
2022/12/27 13:10:18;;;;;;;5.45;2.33;;;7.30;96.30;;;;;;4925983;29;20579;-80
2022/12/27 13:13:14;;;;;;;5.63;2.33;;;7.30;96.30;;;;;;4896979;29;20099;-80
2022/12/27 13:16:08;;;;;;;3.97;1.52;;;7.30;96.40;;;;;;4890365;29;20091;-80
2022/12/27 13:18:41;;;;;;;6.25;2.60;;;7.20;96.50;;;;;;4917091;29;20043;-81
2022/12/27 13:21:59;;;;;;;4.72;1.52;;;7.20;96.80;;;;;;4911407;29;20048;-81
2022/12/27 13:24:49;;;;;;;4.10;1.80;;;7.20;96.60;;;;;;4855417;29;20082;-81
2022/12/27 13:27:26;;;;;;;4.32;1.40;;;7.20;96.40;;;;;;4907480;29;20059;-80
2022/12/27 13:29:53;;;;;;;4.13;1.30;;;7.20;96.50;;;;;;4913958;29;20040;-80
2022/12/27 13:32:38;;;;;;;3.60;1.52;;;7.30;96.60;;;;;;4901235;29;20090;-81
2022/12/27 13:35:20;;;;;;;6.60;1.70;;;7.30;96.60;;;;;;4905359;29;20048;-81
2022/12/27 13:37:56;;;;;;;3.03;1.45;;;7.30;96.80;;;;;;4894108;29;20104;-81
2022/12/27 13:40:44;;;;;;;4.60;1.58;;;7.40;96.40;;;;;;4899856;29;20044;-80
2022/12/27 13:43:25;;;;;;;4.13;1.60;;;7.50;96.50;;;;;;4899842;29;20051;-81
2022/12/27 13:46:33;;;;;;;3.60;1.50;;;7.50;96.40;;;;;;4908068;29;20044;-80
2022/12/27 13:49:46;;;;;;;3.60;1.38;;;7.50;96.30;;;;;;4906849;29;20052;-80
2022/12/27 13:52:50;;;;;;;4.95;1.60;;;7.40;96.40;;;;;;4912924;29;20076;-80
2022/12/27 13:55:35;;;;;;;3.30;1.20;;;7.40;96.40;;;;;;4900823;29;20048;-80
2022/12/27 13:58:14;;;;;;;3.85;1.58;;;7.40;96.50;;;;;;4910837;29;20086;-80
2022/12/27 14:00:57;;;;;;;3.05;1.30;;;7.40;96.50;;;;;;4915147;29;20418;-80
2022/12/27 14:03:45;;;;;;;2.30;1.00;;;7.50;96.50;;;;;;4918576;29;20048;-80
2022/12/27 14:06:25;;;;;;;6.18;1.67;;;7.50;96.50;;;;;;4912966;29;20052;-80
2022/12/27 14:09:22;;;;;;;3.75;1.60;;;7.50;96.50;;;;;;4907492;29;20048;-80
2022/12/27 14:12:04;;;;;;;4.43;1.45;;;7.50;96.40;;;;;;4916581;29;20048;-87
2022/12/27 14:14:34;;;;;;;5.43;1.95;;;7.50;96.40;;;;;;4919139;29;20107;-88
2022/12/27 14:17:29;;;;;;;4.30;2.38;;;7.50;96.30;;;;;;4914017;29;20058;-86
2022/12/27 14:20:24;;;;;;;3.75;1.70;;;7.50;96.20;;;;;;4899787;29;20055;-87
2022/12/27 14:23:10;;;;;;;9.95;2.00;;;7.50;96.30;;;;;;4918850;29;20147;-87
2022/12/27 14:26:21;;;;;;;3.75;1.60;;;7.50;96.40;;;;;;4922214;29;20059;-87
2022/12/27 14:28:54;;;;;;;4.65;1.20;;;7.50;96.30;;;;;;4916605;29;20044;-85
2022/12/27 14:32:21;;;;;;;3.38;1.50;;;7.40;96.40;;;;;;4918749;29;20143;-84
2022/12/27 14:34:57;;;;;;;4.88;1.48;;;7.40;96.40;;;;;;4839934;29;20046;-83
2022/12/27 14:37:47;;;;;;;4.45;1.45;;;7.40;96.40;;;;;;4912516;28;20062;-82
2022/12/27 14:40:52;;;;;;;2.58;1.08;;;7.30;96.40;;;;;;4937752;29;20390;-82
2022/12/27 14:43:50;;;;;;;3.20;1.60;;;7.30;96.50;;;;;;4890400;29;20063;-84
2022/12/27 14:46:29;;;;;;;5.45;1.77;;;7.30;96.50;;;;;;4918256;29;20513;-84
2022/12/27 14:49:14;;;;;;;4.28;1.00;;;7.20;96.50;;;;;;4953121;28;20051;-84
2022/12/27 14:51:47;;;;;;;4.43;1.33;;;7.20;96.50;;;;;;4925566;29;20044;-84
2022/12/27 14:54:55;;;;;;;3.47;1.20;;;7.20;96.50;;;;;;4917497;29;20477;-87
2022/12/27 14:57:34;;;;;;;4.50;1.23;;;7.20;96.50;;;;;;4913618;29;20502;-82
2022/12/27 15:00:14;;;;;;;6.60;1.38;;;7.20;96.60;;;;;;4921514;29;20103;-83
2022/12/27 15:02:41;;;;;;;4.63;1.48;;;7.10;96.60;;;;;;4936732;29;20486;-82
2022/12/27 15:05:50;;;;;;;3.05;1.00;;;7.10;96.60;;;;;;4930086;29;20405;-83
2022/12/27 15:08:29;;;;;;;2.67;1.10;;;7.10;96.90;;;;;;4896709;29;20052;-83
2022/12/27 15:11:31;;;;;;;2.33;0.75;;;7.10;96.70;;;;;;4924092;29;20469;-84
2022/12/27 15:14:26;;;;;;;6.47;1.58;;;7.10;96.70;;;;;;4894018;29;20150;-83
2022/12/27 15:17:05;;;;;;;4.22;1.27;;;7.10;96.70;;;;;;4927414;29;20139;-83
2022/12/27 15:19:52;;;;;;;5.60;1.10;;;7.00;96.70;;;;;;4937975;29;20054;-81
2022/12/27 15:22:33;;;;;;;3.50;1.10;;;7.00;97.00;;;;;;4940319;29;20106;-82